createdAt,value
2022-11-05T00:00:16.915Z,100304.22
2022-11-05T00:03:02.297Z,100301.47
2022-11-05T00:06:09.136Z,100301.47
2022-11-05T00:09:04.003Z,100307.84
2022-11-05T00:11:51.552Z,100314.78
2022-11-05T00:14:36.973Z,100315.75
2022-11-05T00:17:04.864Z,100315.50
2022-11-05T00:19:32.618Z,100325.09
2022-11-05T00:22:20.380Z,100323.41
2022-11-05T00:25:06.931Z,100323.16
2022-11-05T00:27:35.479Z,100325.66
2022-11-05T00:30:08.010Z,100330.81
2022-11-05T00:32:40.219Z,100338.47
2022-11-05T00:35:08.859Z,100338.47
2022-11-05T00:37:36.991Z,100347.22
2022-11-05T00:40:07.728Z,100349.84
2022-11-05T00:42:53.485Z,100341.22
2022-11-05T00:45:22.014Z,100348.16
2022-11-05T00:48:07.311Z,100357.03
2022-11-05T00:50:35.322Z,100357.19
2022-11-05T00:53:03.807Z,100359.22
2022-11-05T00:55:37.990Z,100360.06
2022-11-05T00:58:08.162Z,100361.72
2022-11-05T01:00:38.527Z,100363.66
2022-11-05T01:03:09.132Z,100371.56
2022-11-05T01:05:41.251Z,100372.41
2022-11-05T01:08:09.943Z,100375.75
2022-11-05T01:10:46.291Z,100374.19
2022-11-05T01:13:15.706Z,100376.97
2022-11-05T01:15:44.244Z,100376.97
2022-11-05T01:18:12.390Z,100374.47
2022-11-05T01:20:40.894Z,100376.38
2022-11-05T01:23:13.338Z,100379.97
2022-11-05T01:25:41.883Z,100383.56
2022-11-05T01:28:11.203Z,100388.16
2022-11-05T01:30:39.556Z,100390.19
2022-11-05T01:33:09.932Z,100398.91
2022-11-05T01:35:37.911Z,100399.06
2022-11-05T01:38:05.689Z,100397.25
2022-11-05T01:40:33.634Z,100401.69
2022-11-05T01:43:01.446Z,100399.06
2022-11-05T01:45:32.777Z,100400.84
2022-11-05T01:48:06.015Z,100397.25
2022-11-05T01:50:43.034Z,100403.50
2022-11-05T01:53:19.901Z,100402.53
2022-11-05T01:55:52.747Z,100401.69
2022-11-05T01:58:25.839Z,100403.50
2022-11-05T02:00:57.691Z,100410.44
2022-11-05T02:03:27.172Z,100412.94
2022-11-05T02:05:57.587Z,100414.03
2022-11-05T02:08:37.521Z,100415.25
2022-11-05T02:11:06.455Z,100414.53
2022-11-05T02:13:37.383Z,100424.09
2022-11-05T02:16:13.136Z,100419.56
2022-11-05T02:18:50.453Z,100421.47
2022-11-05T02:21:41.802Z,100420.66
2022-11-05T02:24:44.662Z,100420.88
2022-11-05T02:27:21.159Z,100424.47
2022-11-05T02:30:26.567Z,100430.00
2022-11-05T02:33:27.938Z,100431.78
2022-11-05T02:36:15.866Z,100431.66
2022-11-05T02:38:54.272Z,100434.41
2022-11-05T02:41:26.540Z,100439.69
2022-11-05T02:44:08.046Z,100433.59
2022-11-05T02:46:47.384Z,100433.59
2022-11-05T02:49:27.437Z,100430.22
2022-11-05T02:51:58.909Z,100438.41
2022-11-05T02:54:33.935Z,100432.28
2022-11-05T02:57:05.064Z,100441.88
2022-11-05T02:59:32.887Z,100435.75
2022-11-05T03:02:04.388Z,100436.59
2022-11-05T03:04:33.022Z,100434.91
2022-11-05T03:07:27.267Z,100442.00
2022-11-05T03:10:10.432Z,100449.03
2022-11-05T03:12:48.404Z,100452.53
2022-11-05T03:15:27.410Z,100455.97
2022-11-05T03:18:07.691Z,100471.78
2022-11-05T03:20:41.178Z,100461.13
2022-11-05T03:23:15.215Z,100466.41
2022-11-05T03:25:49.474Z,100470.59
2022-11-05T03:28:22.982Z,100469.03
2022-11-05T03:30:53.345Z,100475.03
2022-11-05T03:33:27.180Z,100477.06
2022-11-05T03:35:58.645Z,100482.59
2022-11-05T03:38:30.066Z,100486.06
2022-11-05T03:41:02.467Z,100486.91
2022-11-05T03:43:36.295Z,100485.94
2022-11-05T03:46:10.677Z,100491.19
2022-11-05T03:48:48.279Z,100495.50
2022-11-05T03:51:25.748Z,100502.72
2022-11-05T03:53:57.802Z,100500.94
2022-11-05T03:56:34.110Z,100505.59
2022-11-05T03:59:03.707Z,100510.88
2022-11-05T04:01:32.275Z,100510.88
2022-11-05T04:04:01.646Z,100515.41
2022-11-05T04:06:48.990Z,100511.09
2022-11-05T04:09:34.280Z,100520.56
2022-11-05T04:12:19.636Z,100507.25
2022-11-05T04:14:47.524Z,100509.91
2022-11-05T04:17:14.491Z,100517.44
2022-11-05T04:20:02.713Z,100524.41
2022-11-05T04:22:50.424Z,100519.94
2022-11-05T04:25:20.181Z,100530.38
2022-11-05T04:27:48.095Z,100531.19
2022-11-05T04:30:20.416Z,100541.03
2022-11-05T04:33:03.878Z,100536.47
2022-11-05T04:35:35.443Z,100546.28
2022-11-05T04:38:03.850Z,100546.28
2022-11-05T04:40:31.734Z,100547.16
2022-11-05T04:42:59.935Z,100550.16
2022-11-05T04:45:30.517Z,100552.88
2022-11-05T04:47:58.304Z,100553.84
2022-11-05T04:50:28.603Z,100559.94
2022-11-05T04:52:58.014Z,100554.91
2022-11-05T04:55:26.673Z,100549.75
2022-11-05T04:57:55.384Z,100547.84
2022-11-05T05:00:24.623Z,100548.81
2022-11-05T05:02:52.394Z,100552.41
2022-11-05T05:05:21.210Z,100556.69
2022-11-05T05:07:49.046Z,100563.03
2022-11-05T05:10:18.611Z,100566.41
2022-11-05T05:12:46.363Z,100554.91
2022-11-05T05:15:14.226Z,100555.75
2022-11-05T05:17:42.018Z,100561.97
2022-11-05T05:20:27.862Z,100559.22
2022-11-05T05:22:56.734Z,100566.28
2022-11-05T05:25:28.219Z,100565.47
2022-11-05T05:27:58.267Z,100576.81
2022-11-05T05:30:26.495Z,100572.41
2022-11-05T05:32:56.731Z,100571.44
2022-11-05T05:35:24.602Z,100573.97
2022-11-05T05:37:56.107Z,100578.28
2022-11-05T05:40:27.978Z,100578.16
2022-11-05T05:42:57.905Z,100586.88
2022-11-05T05:45:25.720Z,100591.34
2022-11-05T05:47:55.914Z,100589.41
2022-11-05T05:50:23.910Z,100592.91
2022-11-05T05:52:53.152Z,100589.53
2022-11-05T05:55:20.989Z,100598.16
2022-11-05T05:57:50.155Z,100600.81
2022-11-05T06:00:20.106Z,100603.44
2022-11-05T06:02:47.979Z,100599.94
2022-11-05T06:05:16.208Z,100613.84
2022-11-05T06:07:44.016Z,100615.88
2022-11-05T06:10:11.928Z,100603.75
2022-11-05T06:12:39.776Z,100618.63
2022-11-05T06:15:09.635Z,100618.63
2022-11-05T06:17:37.541Z,100620.53
2022-11-05T06:20:07.906Z,100622.19
2022-11-05T06:22:35.748Z,100625.69
2022-11-05T06:25:03.578Z,100631.06
2022-11-05T06:27:31.412Z,100631.81
2022-11-05T06:29:59.327Z,100640.44
2022-11-05T06:32:28.636Z,100640.44
2022-11-05T06:34:56.464Z,100647.63
2022-11-05T06:37:27.761Z,100649.28
2022-11-05T06:39:57.060Z,100651.78
2022-11-05T06:42:25.436Z,100656.00
2022-11-05T06:44:53.238Z,100656.75
2022-11-05T06:47:21.132Z,100665.56
2022-11-05T06:49:50.578Z,100676.09
2022-11-05T06:52:18.689Z,100676.84
2022-11-05T06:54:46.742Z,100673.25
2022-11-05T06:57:14.545Z,100682.84
2022-11-05T06:59:43.014Z,100683.56
2022-11-05T07:02:13.965Z,100686.94
2022-11-05T07:04:42.773Z,100685.84
2022-11-05T07:07:12.000Z,100690.03
2022-11-05T07:09:42.957Z,100692.47
2022-11-05T07:12:13.012Z,100698.56
2022-11-05T07:14:42.946Z,100706.25
2022-11-05T07:17:18.530Z,100712.13
2022-11-05T07:19:46.441Z,100720.84
2022-11-05T07:22:17.646Z,100714.63
2022-11-05T07:24:47.178Z,100723.13
2022-11-05T07:27:15.451Z,100735.13
2022-11-05T07:29:43.293Z,100740.31
2022-11-05T07:32:11.272Z,100739.19
2022-11-05T07:34:39.051Z,100749.75
2022-11-05T07:37:06.899Z,100752.16
2022-11-05T07:39:36.017Z,100751.91
2022-11-05T07:42:04.334Z,100750.97
2022-11-05T07:44:34.908Z,100765.50
2022-11-05T07:47:04.105Z,100760.94
2022-11-05T07:49:34.085Z,100758.91
2022-11-05T07:52:01.869Z,100762.25
2022-11-05T07:54:29.810Z,100766.47
2022-11-05T07:56:58.899Z,100774.16
2022-11-05T07:59:26.808Z,100775.59
2022-11-05T08:01:54.779Z,100777.25
2022-11-05T08:04:22.828Z,100778.94
2022-11-05T08:06:50.577Z,100773.09
2022-11-05T08:09:18.490Z,100783.28
2022-11-05T08:11:46.320Z,100787.13
2022-11-05T08:14:15.491Z,100791.22
2022-11-05T08:16:43.437Z,100790.84
2022-11-05T08:19:11.336Z,100792.28
2022-11-05T08:21:39.137Z,100790.16
2022-11-05T08:24:07.677Z,100802.28
2022-11-05T08:26:35.522Z,100797.59
2022-11-05T08:29:03.363Z,100808.03
2022-11-05T08:31:32.671Z,100805.16
2022-11-05T08:34:02.649Z,100798.81
2022-11-05T08:36:30.821Z,100803.13
2022-11-05T08:38:58.748Z,100806.34
2022-11-05T08:41:26.678Z,100810.78
2022-11-05T08:43:56.818Z,100814.28
2022-11-05T08:46:27.156Z,100811.38
2022-11-05T08:48:58.954Z,100815.72
2022-11-05T08:51:26.947Z,100812.22
2022-11-05T08:53:54.818Z,100814.28
2022-11-05T08:56:23.201Z,100819.81
2022-11-05T08:58:51.181Z,100824.34
2022-11-05T09:01:19.211Z,100811.16
2022-11-05T09:03:51.744Z,100815.25
2022-11-05T09:06:23.130Z,100816.81
2022-11-05T09:08:51.316Z,100815.34
2022-11-05T09:11:21.742Z,100810.31
2022-11-05T09:13:49.694Z,100815.56
2022-11-05T09:16:21.532Z,100821.31
2022-11-05T09:18:50.161Z,100822.16
2022-11-05T09:21:18.411Z,100817.81
2022-11-05T09:23:49.742Z,100821.97
2022-11-05T09:26:17.674Z,100821.22
2022-11-05T09:28:45.614Z,100823.75
2022-11-05T09:31:13.779Z,100836.63
2022-11-05T09:33:42.428Z,100828.06
2022-11-05T09:36:12.476Z,100837.56
2022-11-05T09:38:40.353Z,100835.03
2022-11-05T09:41:16.561Z,100832.06
2022-11-05T09:43:47.827Z,100843.81
2022-11-05T09:46:21.398Z,100835.78
2022-11-05T09:48:53.362Z,100848.13
2022-11-05T09:51:24.068Z,100849.09
2022-11-05T09:53:53.493Z,100852.59
2022-11-05T09:56:27.260Z,100854.75
2022-11-05T09:58:59.698Z,100853.69
2022-11-05T10:01:32.815Z,100860.63
2022-11-05T10:04:06.507Z,100853.16
2022-11-05T10:06:34.747Z,100864.00
2022-11-05T10:09:06.755Z,100850.38
2022-11-05T10:11:42.279Z,100854.84
2022-11-05T10:14:17.823Z,100869.59
2022-11-05T10:16:51.402Z,100875.75
2022-11-05T10:19:24.958Z,100872.50
2022-11-05T10:22:11.238Z,100877.38
2022-11-05T10:24:42.948Z,100881.47
2022-11-05T10:27:17.437Z,100881.31
2022-11-05T10:29:49.345Z,100883.34
2022-11-05T10:32:26.204Z,100881.28
2022-11-05T10:34:57.283Z,100884.16
2022-11-05T10:37:26.279Z,100888.41
2022-11-05T10:39:54.935Z,100885.78
2022-11-05T10:42:47.877Z,100888.19
2022-11-05T10:45:32.773Z,100878.56
2022-11-05T10:48:21.902Z,100888.63
2022-11-05T10:50:50.016Z,100891.47
2022-11-05T10:53:22.218Z,100894.53
2022-11-05T10:55:52.109Z,100891.31
2022-11-05T10:58:28.864Z,100878.09
2022-11-05T11:01:07.863Z,100879.19
2022-11-05T11:03:43.154Z,100875.63
2022-11-05T11:06:22.966Z,100884.22
2022-11-05T11:08:52.234Z,100884.41
2022-11-05T11:11:29.902Z,100887.78
2022-11-05T11:14:05.225Z,100880.31
2022-11-05T11:16:39.340Z,100887.56
2022-11-05T11:19:25.720Z,100887.91
2022-11-05T11:22:13.376Z,100880.41
2022-11-05T11:24:43.394Z,100885.50
2022-11-05T11:27:15.675Z,100884.19
2022-11-05T11:29:50.008Z,100881.94
2022-11-05T11:32:20.538Z,100881.09
2022-11-05T11:34:52.641Z,100878.97
2022-11-05T11:37:26.589Z,100872.88
2022-11-05T11:39:58.132Z,100871.44
2022-11-05T11:42:31.306Z,100871.44
2022-11-05T11:45:05.488Z,100870.69
2022-11-05T11:47:34.365Z,100874.53
2022-11-05T11:50:05.436Z,100875.22
2022-11-05T11:52:37.763Z,100869.88
2022-11-05T11:55:19.966Z,100872.91
2022-11-05T11:57:50.056Z,100867.56
2022-11-05T12:00:21.175Z,100871.75
2022-11-05T12:03:12.654Z,100862.59
2022-11-05T12:05:46.175Z,100866.56
2022-11-05T12:08:27.157Z,100851.38
2022-11-05T12:11:02.939Z,100859.16
2022-11-05T12:14:02.090Z,100856.72
2022-11-05T12:16:52.034Z,100851.16
2022-11-05T12:19:37.444Z,100854.31
2022-11-05T12:22:22.493Z,100857.47
2022-11-05T12:25:03.284Z,100845.50
2022-11-05T12:27:51.659Z,100853.41
2022-11-05T12:30:21.511Z,100854.00
2022-11-05T12:33:04.932Z,100851.00
2022-11-05T12:35:47.399Z,100848.69
2022-11-05T12:38:28.058Z,100843.94
2022-11-05T12:41:12.701Z,100839.22
2022-11-05T12:43:57.297Z,100847.78
2022-11-05T12:46:33.946Z,100841.38
2022-11-05T12:49:30.812Z,100836.88
2022-11-05T12:52:12.868Z,100835.91
2022-11-05T12:54:54.015Z,100843.88
2022-11-05T12:57:24.107Z,100842.97
2022-11-05T12:59:57.869Z,100839.06
2022-11-05T13:02:30.227Z,100835.88
2022-11-05T13:05:08.018Z,100847.91
2022-11-05T13:07:40.115Z,100839.69
2022-11-05T13:10:19.440Z,100848.44
2022-11-05T13:13:01.220Z,100852.88
2022-11-05T13:15:33.693Z,100850.75
2022-11-05T13:18:06.539Z,100849.47
2022-11-05T13:20:40.710Z,100852.75
2022-11-05T13:23:17.353Z,100842.28
2022-11-05T13:25:52.088Z,100844.66
2022-11-05T13:28:28.790Z,100841.59
2022-11-05T13:31:01.490Z,100845.13
2022-11-05T13:33:34.296Z,100847.13
2022-11-05T13:36:26.031Z,100843.81
2022-11-05T13:39:03.574Z,100841.19
2022-11-05T13:41:44.183Z,100835.91
2022-11-05T13:44:45.434Z,100848.59
2022-11-05T13:47:42.864Z,100844.69
2022-11-05T13:50:33.848Z,100856.00
2022-11-05T13:53:24.607Z,100847.78
2022-11-05T13:56:01.023Z,100846.25
2022-11-05T13:59:00.290Z,100841.50
2022-11-05T14:01:45.188Z,100837.47
2022-11-05T14:04:26.782Z,100840.69
2022-11-05T14:06:56.541Z,100837.22
2022-11-05T14:09:27.871Z,100844.56
2022-11-05T14:11:58.860Z,100851.72
2022-11-05T14:14:30.751Z,100845.06
2022-11-05T14:17:17.872Z,100843.53
2022-11-05T14:20:08.619Z,100848.88
2022-11-05T14:22:39.628Z,100851.00
2022-11-05T14:25:45.334Z,100848.59
2022-11-05T14:28:40.445Z,100854.06
2022-11-05T14:31:40.983Z,100850.25
2022-11-05T14:34:24.821Z,100861.44
2022-11-05T14:37:24.726Z,100861.13
2022-11-05T14:39:54.302Z,100855.22
2022-11-05T14:42:26.778Z,100867.69
2022-11-05T14:45:07.273Z,100856.09
2022-11-05T15:04:12.949Z,100866.66
2022-11-05T15:07:14.544Z,100871.03
2022-11-05T15:09:50.356Z,100863.47
2022-11-05T15:12:23.001Z,100868.16
2022-11-05T15:14:58.310Z,100866.03
2022-11-05T15:17:34.634Z,100869.75
2022-11-05T15:20:10.788Z,100877.09
2022-11-05T15:22:45.165Z,100875.78
2022-11-05T15:25:19.580Z,100871.03
2022-11-05T15:28:01.775Z,100872.50
2022-11-05T15:30:31.371Z,100874.88
2022-11-05T15:33:10.711Z,100879.25
2022-11-05T15:35:47.934Z,100868.94
2022-11-05T15:38:34.407Z,100872.44
2022-11-05T15:41:05.272Z,100867.91
2022-11-05T15:43:34.692Z,100873.06
2022-11-05T15:46:08.545Z,100881.59
2022-11-05T15:48:38.327Z,100876.34
2022-11-05T15:51:08.326Z,100881.00
2022-11-05T15:54:24.013Z,100880.38
2022-11-05T15:56:49.873Z,100885.06
2022-11-05T15:59:20.600Z,100887.09
2022-11-05T16:01:51.392Z,100883.13
2022-11-05T16:04:23.456Z,100889.13
2022-11-05T16:06:59.858Z,100887.25
2022-11-05T16:09:38.497Z,100889.38
2022-11-05T16:12:25.105Z,100887.69
2022-11-05T16:15:20.912Z,100885.66
2022-11-05T16:17:54.628Z,100887.56
2022-11-05T16:20:30.383Z,100891.50
2022-11-05T16:23:01.313Z,100888.50
2022-11-05T16:25:39.550Z,100893.63
2022-11-05T16:28:23.219Z,100895.59
2022-11-05T16:30:57.459Z,100894.88
2022-11-05T16:33:28.206Z,100896.03
2022-11-05T16:36:00.248Z,100899.38
2022-11-05T16:38:29.483Z,100900.63
2022-11-05T16:41:00.336Z,100913.34
2022-11-05T16:43:29.082Z,100906.16
2022-11-05T16:46:00.753Z,100895.72
2022-11-05T16:48:29.552Z,100901.66
2022-11-05T16:50:58.611Z,100909.06
2022-11-05T16:53:27.124Z,100914.56
2022-11-05T16:55:56.599Z,100918.25
2022-11-05T16:58:28.043Z,100927.34
2022-11-05T17:01:01.696Z,100921.56
2022-11-05T17:03:34.577Z,100925.50
2022-11-05T17:06:04.730Z,100931.59
2022-11-05T17:08:33.230Z,100937.81
2022-11-05T17:11:03.093Z,100938.16
2022-11-05T17:13:33.317Z,100953.44
2022-11-05T17:16:02.169Z,100955.34
2022-11-05T17:18:32.089Z,100968.00
2022-11-05T17:21:00.234Z,100956.13
2022-11-05T17:23:28.834Z,100966.19
2022-11-05T17:26:03.045Z,100969.00
2022-11-05T17:28:34.347Z,100975.31
2022-11-05T17:31:05.849Z,100977.41
2022-11-05T17:33:34.984Z,100983.63
2022-11-05T17:36:08.886Z,100994.31
2022-11-05T17:38:37.335Z,100985.59
2022-11-05T17:41:14.099Z,100993.59
2022-11-05T17:43:46.884Z,100989.47
2022-11-05T17:46:18.963Z,100991.47
2022-11-05T17:48:52.538Z,100988.00
2022-11-05T17:51:21.936Z,100993.03
2022-11-05T17:53:50.966Z,100993.53
2022-11-05T17:56:33.812Z,100999.75
2022-11-05T17:59:04.882Z,100995.44
2022-11-05T18:01:36.051Z,100990.69
2022-11-05T18:04:08.944Z,100989.44
2022-11-05T18:06:42.158Z,100995.50
2022-11-05T18:09:11.502Z,100992.44
2022-11-05T18:11:40.558Z,101007.38
2022-11-05T18:14:11.342Z,101011.56
2022-11-05T18:16:39.946Z,101009.13
2022-11-05T18:19:08.414Z,101011.41
2022-11-05T18:21:37.106Z,101012.34
2022-11-05T18:24:06.106Z,101013.38
2022-11-05T18:26:37.553Z,101015.28
2022-11-05T18:29:10.448Z,101024.00
2022-11-05T18:31:38.986Z,101019.59
2022-11-05T18:34:07.824Z,101018.00
2022-11-05T18:36:37.285Z,101016.88
2022-11-05T18:39:06.654Z,101021.09
2022-11-05T18:41:35.305Z,101017.53
2022-11-05T18:44:05.406Z,101029.72
2022-11-05T18:46:57.234Z,101020.78
2022-11-05T18:49:23.502Z,101028.78
2022-11-05T18:51:51.957Z,101025.03
2022-11-05T18:54:21.170Z,101024.81
2022-11-05T18:56:50.447Z,101026.31
2022-11-05T18:59:38.633Z,101027.19
2022-11-05T19:02:14.952Z,101023.06
2022-11-05T19:05:00.727Z,101025.50
2022-11-05T19:07:37.135Z,101019.13
2022-11-05T19:10:06.343Z,101025.41
2022-11-05T19:12:35.471Z,101027.72
2022-11-05T19:15:05.152Z,101027.72
2022-11-05T19:17:36.710Z,101022.09
2022-11-05T19:20:06.627Z,101028.84
2022-11-05T19:22:39.763Z,101026.75
2022-11-05T19:25:10.504Z,101031.34
2022-11-05T19:27:39.744Z,101038.28
2022-11-05T19:30:11.787Z,101028.13
2022-11-05T19:32:44.390Z,101024.19
2022-11-05T19:35:15.071Z,101026.84
2022-11-05T19:37:43.139Z,101020.84
2022-11-05T19:40:12.045Z,101026.84
2022-11-05T19:42:44.111Z,101021.66
2022-11-05T19:45:38.745Z,101011.06
2022-11-05T19:48:04.012Z,101018.94
2022-11-05T19:50:32.443Z,101010.63
2022-11-05T19:53:03.027Z,101016.41
2022-11-05T19:55:31.481Z,101019.91
2022-11-05T19:57:59.868Z,101025.31
2022-11-05T20:00:27.762Z,101011.34
2022-11-05T20:02:55.934Z,101018.38
2022-11-05T20:05:27.837Z,101009.75
2022-11-05T20:07:56.433Z,101016.06
2022-11-05T20:10:24.822Z,101028.25
2022-11-05T20:12:53.214Z,101021.31
2022-11-05T20:15:24.674Z,101018.69
2022-11-05T20:17:56.139Z,101019.34
2022-11-05T20:20:26.043Z,101022.34
2022-11-05T20:22:57.658Z,101019.50
2022-11-05T20:25:25.738Z,101029.53
2022-11-05T20:27:53.947Z,101026.34
2022-11-05T20:30:22.303Z,101024.56
2022-11-05T20:32:54.908Z,101032.16
2022-11-05T20:35:23.400Z,101030.19
2022-11-05T20:37:55.396Z,101031.84
2022-11-05T20:40:24.227Z,101032.38
2022-11-05T20:42:54.653Z,101031.22
2022-11-05T20:45:22.658Z,101032.25
2022-11-05T20:47:52.343Z,101034.53
2022-11-05T20:50:20.727Z,101032.00
2022-11-05T20:52:50.963Z,101036.63
2022-11-05T20:55:25.034Z,101040.28
2022-11-05T20:57:55.286Z,101038.28
2022-11-05T21:00:26.004Z,101036.41
2022-11-05T21:02:56.892Z,101039.13
2022-11-05T21:05:25.027Z,101039.13
2022-11-05T21:07:53.085Z,101045.88
2022-11-05T21:10:21.150Z,101035.38
2022-11-05T21:12:52.236Z,101035.56
2022-11-05T21:15:24.323Z,101039.63
2022-11-05T21:17:52.927Z,101044.88
2022-11-05T21:20:23.090Z,101043.84
2022-11-05T21:22:54.461Z,101045.53
2022-11-05T21:25:26.260Z,101049.91
2022-11-05T21:27:56.327Z,101047.00
2022-11-05T21:30:25.068Z,101048.97
2022-11-05T21:32:53.672Z,101048.13
2022-11-05T21:35:21.715Z,101039.53
2022-11-05T21:37:49.890Z,101034.00
2022-11-05T21:40:23.363Z,101025.91
2022-11-05T21:42:51.364Z,101029.75
2022-11-05T21:45:23.850Z,101032.09
2022-11-05T21:47:52.482Z,101023.38
2022-11-05T21:50:40.795Z,101031.06
2022-11-05T21:53:30.200Z,101030.22
2022-11-05T21:56:17.456Z,101031.75
2022-11-05T21:59:05.438Z,101028.09
2022-11-05T22:01:35.271Z,101020.94
2022-11-05T22:04:04.625Z,101028.09
2022-11-05T22:06:34.160Z,101027.88
2022-11-05T22:09:03.892Z,101018.13
2022-11-05T22:11:37.082Z,101018.78
2022-11-05T22:14:09.729Z,101013.44
2022-11-05T22:16:40.751Z,101013.44
2022-11-05T22:19:09.393Z,101019.06
2022-11-05T22:21:40.398Z,101022.63
2022-11-05T22:24:10.422Z,101022.34
2022-11-05T22:26:41.958Z,101021.59
2022-11-05T22:29:10.756Z,101028.53
2022-11-05T22:31:40.544Z,101021.31
2022-11-05T22:34:10.974Z,101022.34
2022-11-05T22:36:39.122Z,101021.53
2022-11-05T22:39:07.675Z,101037.28
2022-11-05T22:41:35.655Z,101037.00
2022-11-05T22:44:05.619Z,101042.03
2022-11-05T22:46:35.917Z,101042.91
2022-11-05T22:49:08.258Z,101041.94
2022-11-05T22:51:40.464Z,101038.59
2022-11-05T22:54:09.384Z,101041.22
2022-11-05T22:56:39.351Z,101039.31
2022-11-05T22:59:12.348Z,101032.03
2022-11-05T23:01:41.010Z,101034.00
2022-11-05T23:04:10.722Z,101035.56
2022-11-05T23:06:56.951Z,101034.66
2022-11-05T23:09:45.378Z,101041.66
2022-11-05T23:12:24.292Z,101041.47
2022-11-05T23:14:56.078Z,101045.69
2022-11-05T23:17:44.706Z,101037.81
2022-11-05T23:20:36.292Z,101030.22
2022-11-05T23:23:28.023Z,101038.00
2022-11-05T23:25:58.181Z,101029.94
2022-11-05T23:28:26.467Z,101024.69
2022-11-05T23:31:11.842Z,101020.38
2022-11-05T23:33:42.039Z,101026.56
2022-11-05T23:36:31.013Z,101022.19
2022-11-05T23:38:59.053Z,101003.03
2022-11-05T23:41:44.354Z,101002.66
2022-11-05T23:44:37.784Z,100995.56
2022-11-05T23:47:23.411Z,100998.78
2022-11-05T23:49:51.457Z,100998.50
2022-11-05T23:52:20.633Z,100998.50
2022-11-05T23:54:48.578Z,100996.84
2022-11-05T23:57:16.387Z,101002.91
2022-11-05T23:59:46.197Z,100981.91
